Caribe Legend — V2ST — position and weather

sailwx.info

Track history (hours):
 
Tides and Currents Weather Stations Pressure Air Temp Water Temp Dewpoint Dewpoint Depression Visibility Wind Speed Wind Dir Waves Ship Positions

Caribe Legend

Last reported at 2017-Sep-19 23:13 UTC. Time now 2017-Sep-21 03:15 UTC.
Position N 26°46' W 080°03'.

Length 100 m; draft 5.2 m.

Type: Cargo ship. MMSI: 304598000.

Date/timePositionNaut miles runAvg speedWind from/ knotsBaromVisibWave heightAir tempDewpointWater temp
2017-Sep-19 23:13N 26°46' W 080°03'1 0.1
2017-Sep-19 13:07N 26°46' W 080°03'0 0.0
2017-Sep-19 12:55N 26°46' W 080°03'0 0.0
2017-Sep-19 12:25N 26°46' W 080°03'0 0.0
2017-Sep-19 11:56N 26°46' W 080°03'1 3.0
2017-Sep-19 11:29N 26°46' W 080°02'1 0.0
2017-Sep-17 19:57N 26°46' W 080°03'0 0.1
2017-Sep-17 12:25N 26°46' W 080°03'0 0.0
2017-Sep-15 13:05N 26°46' W 080°03'0 0.3
2017-Sep-15 13:00N 26°46' W 080°03'4 5.4
2017-Sep-15 12:15N 26°43' W 079°60'19 7.1
2017-Sep-15 09:30N 26°38' W 079°39'1814.1
2017-Sep-15 08:13N 26°30' W 079°20'514.1
2017-Sep-15 07:51N 26°28' W 079°15'45 1.6
2017-Sep-14 02:51N 26°46' W 080°02'1 0.1
2017-Sep-13 17:49N 26°46' W 080°03'3 4.9
2017-Sep-13 17:14N 26°44' W 080°01'1 1.6
2017-Sep-13 16:55N 26°44' W 080°01'0 0.0
2017-Sep-13 16:28N 26°44' W 080°01'0 0.0
2017-Sep-13 14:49N 26°44' W 080°01'0 0.0
2017-Sep-12 22:13N 26°44' W 080°01'0 0.0
2017-Sep-12 21:55N 26°44' W 080°01'0 0.0
2017-Sep-12 20:46N 26°44' W 080°01'0 0.0
2017-Sep-12 20:07N 26°44' W 080°01'0 0.0
2017-Sep-12 19:58N 26°44' W 080°01'0 0.0
2017-Sep-12 18:46N 26°44' W 080°01'0 0.0
2017-Sep-12 18:01N 26°44' W 080°01'33 3.4
2017-Sep-12 08:18N 26°11' W 079°60'415.0
2017-Sep-12 08:00N 26°07' W 079°60'815.1
2017-Sep-12 07:30N 25°59' W 080°00'816.9
2017-Sep-12 07:00N 25°51' W 080°00'816.8
2017-Sep-12 06:30N 25°42' W 080°00'816.5
2017-Sep-12 06:01N 25°34' W 080°00'816.2
2017-Sep-12 05:31N 25°26' W 080°00'815.6
2017-Sep-12 04:59N 25°18' W 080°02'  
Track history (hours):
 
Tides and Currents Weather Stations Pressure Air Temp Water Temp Dewpoint Dewpoint Depression Visibility Wind Speed Wind Dir Waves Ship Positions

Caribe Legend

Last reported at 2017-Sep-19 23:13 UTC. Time now 2017-Sep-21 03:15 UTC.
Position N 26°46' W 080°03'.

Length 100 m; draft 5.2 m.

Type: Cargo ship. MMSI: 304598000.

Date/timePositionNaut miles runAvg speedWind from/ knotsBaromVisibWave heightAir tempDewpointWater temp
2017-Sep-19 23:13N 26°46' W 080°03'1 0.1
2017-Sep-19 13:07N 26°46' W 080°03'0 0.0
2017-Sep-19 12:55N 26°46' W 080°03'0 0.0
2017-Sep-19 12:25N 26°46' W 080°03'0 0.0
2017-Sep-19 11:56N 26°46' W 080°03'1 3.0
2017-Sep-19 11:29N 26°46' W 080°02'1 0.0
2017-Sep-17 19:57N 26°46' W 080°03'0 0.1
2017-Sep-17 12:25N 26°46' W 080°03'0 0.0
2017-Sep-15 13:05N 26°46' W 080°03'0 0.3
2017-Sep-15 13:00N 26°46' W 080°03'4 5.4
2017-Sep-15 12:15N 26°43' W 079°60'19 7.1
2017-Sep-15 09:30N 26°38' W 079°39'1814.1
2017-Sep-15 08:13N 26°30' W 079°20'514.1
2017-Sep-15 07:51N 26°28' W 079°15'45 1.6
2017-Sep-14 02:51N 26°46' W 080°02'1 0.1
2017-Sep-13 17:49N 26°46' W 080°03'3 4.9
2017-Sep-13 17:14N 26°44' W 080°01'1 1.6
2017-Sep-13 16:55N 26°44' W 080°01'0 0.0
2017-Sep-13 16:28N 26°44' W 080°01'0 0.0
2017-Sep-13 14:49N 26°44' W 080°01'0 0.0
2017-Sep-12 22:13N 26°44' W 080°01'0 0.0
2017-Sep-12 21:55N 26°44' W 080°01'0 0.0
2017-Sep-12 20:46N 26°44' W 080°01'0 0.0
2017-Sep-12 20:07N 26°44' W 080°01'0 0.0
2017-Sep-12 19:58N 26°44' W 080°01'0 0.0
2017-Sep-12 18:46N 26°44' W 080°01'0 0.0
2017-Sep-12 18:01N 26°44' W 080°01'33 3.4
2017-Sep-12 08:18N 26°11' W 079°60'415.0
2017-Sep-12 08:00N 26°07' W 079°60'815.1
2017-Sep-12 07:30N 25°59' W 080°00'816.9
2017-Sep-12 07:00N 25°51' W 080°00'816.8
2017-Sep-12 06:30N 25°42' W 080°00'816.5
2017-Sep-12 06:01N 25°34' W 080°00'816.2
2017-Sep-12 05:31N 25°26' W 080°00'815.6
2017-Sep-12 04:59N 25°18' W 080°02'  

Dump ship's entire track history